createdAt,value
2022-11-20T00:01:23.177Z,-0.98
2022-11-20T00:03:54.763Z,-0.96
2022-11-20T00:06:23.359Z,-0.93
2022-11-20T00:08:51.163Z,-0.91
2022-11-20T00:11:20.579Z,-0.91
2022-11-20T00:13:49.840Z,-0.92
2022-11-20T00:16:19.681Z,-0.90
2022-11-20T00:18:47.683Z,-0.94
2022-11-20T00:21:18.452Z,-0.92
2022-11-20T00:23:47.120Z,-0.91
2022-11-20T00:26:16.491Z,-0.92
2022-11-20T00:28:45.605Z,-0.91
2022-11-20T00:31:16.778Z,-0.94
2022-11-20T00:33:45.115Z,-0.92
2022-11-20T00:36:14.768Z,-0.87
2022-11-20T00:38:42.348Z,-0.90
2022-11-20T00:41:11.478Z,-0.88
2022-11-20T00:43:39.373Z,-0.86
2022-11-20T00:46:09.558Z,-0.86
2022-11-20T00:48:37.100Z,-0.88
2022-11-20T00:51:04.284Z,-0.93
2022-11-20T00:53:32.154Z,-0.94
2022-11-20T00:56:01.958Z,-0.95
2022-11-20T00:58:34.722Z,-0.97
2022-11-20T01:01:06.431Z,-0.95
2022-11-20T01:03:40.999Z,-1.00
2022-11-20T01:06:12.717Z,-0.99
2022-11-20T01:08:40.289Z,-0.99
2022-11-20T01:11:13.889Z,-0.97
2022-11-20T01:13:42.359Z,-0.96
2022-11-20T01:16:13.957Z,-0.95
2022-11-20T01:18:43.960Z,-0.96
2022-11-20T01:21:13.681Z,-0.98
2022-11-20T01:23:42.671Z,-0.98
2022-11-20T01:26:15.364Z,-1.00
2022-11-20T01:28:42.693Z,-1.05
2022-11-20T01:31:20.181Z,-1.01
2022-11-20T01:33:50.041Z,-1.05
2022-11-20T01:36:18.604Z,-1.03
2022-11-20T01:38:45.827Z,-1.06
2022-11-20T01:41:34.768Z,-1.01
2022-11-20T01:44:02.369Z,-1.05
2022-11-20T01:46:29.592Z,-1.07
2022-11-20T01:49:09.817Z,-1.04
2022-11-20T01:51:45.278Z,-1.13
2022-11-20T01:54:25.553Z,-1.04
2022-11-20T01:56:57.409Z,-1.04
2022-11-20T01:59:27.272Z,-1.06
2022-11-20T02:01:54.829Z,-1.04
2022-11-20T02:04:23.361Z,-1.06
2022-11-20T02:07:00.497Z,-1.01
2022-11-20T02:09:28.975Z,-1.01
2022-11-20T02:11:57.327Z,-1.02
2022-11-20T02:14:25.638Z,-1.06
2022-11-20T02:16:53.161Z,-1.10
2022-11-20T02:19:29.558Z,-1.03
2022-11-20T02:22:29.155Z,-1.02
2022-11-20T02:24:56.721Z,-1.01
2022-11-20T02:27:24.209Z,-1.05
2022-11-20T02:30:02.203Z,-0.99
2022-11-20T02:32:34.870Z,-0.99
2022-11-20T02:35:31.401Z,-0.97
2022-11-20T02:38:02.334Z,-0.96
2022-11-20T02:40:30.371Z,-0.97
2022-11-20T02:42:58.333Z,-1.01
2022-11-20T02:45:26.343Z,-1.01
2022-11-20T02:47:54.208Z,-1.00
2022-11-20T02:50:21.920Z,-0.99
2022-11-20T02:52:49.088Z,-1.01
2022-11-20T02:55:16.391Z,-1.03
2022-11-20T02:57:43.511Z,-1.02
2022-11-20T03:00:11.364Z,-1.06
2022-11-20T03:02:38.409Z,-1.04
2022-11-20T03:05:05.609Z,-1.08
2022-11-20T03:07:32.876Z,-1.10
2022-11-20T03:10:00.104Z,-1.14
2022-11-20T03:12:27.209Z,-1.07
2022-11-20T03:14:54.959Z,-1.06
2022-11-20T03:17:22.050Z,-1.06
2022-11-20T03:19:49.128Z,-0.98
2022-11-20T03:22:16.160Z,-0.99
2022-11-20T03:24:43.240Z,-0.97
2022-11-20T03:27:10.311Z,-0.96
2022-11-20T03:29:37.507Z,-0.97
2022-11-20T03:32:04.824Z,-0.98
2022-11-20T03:34:31.957Z,-1.06
2022-11-20T03:36:59.114Z,-0.99
2022-11-20T03:39:26.287Z,-0.99
2022-11-20T03:41:53.401Z,-1.01
2022-11-20T03:44:23.036Z,-1.00
2022-11-20T03:46:50.189Z,-1.03
2022-11-20T03:49:17.354Z,-1.03
2022-11-20T03:51:44.722Z,-1.09
2022-11-20T03:54:12.090Z,-1.15
2022-11-20T03:56:40.452Z,-1.09
2022-11-20T03:59:08.224Z,-1.09
2022-11-20T04:01:38.628Z,-1.06
2022-11-20T04:04:06.548Z,-1.05
2022-11-20T04:06:38.682Z,-1.09
2022-11-20T04:09:06.885Z,-1.03
2022-11-20T04:11:36.318Z,-1.03
2022-11-20T04:14:07.033Z,-1.03
2022-11-20T04:16:36.556Z,-1.04
2022-11-20T04:19:06.191Z,-1.02
2022-11-20T04:21:33.838Z,-1.05
2022-11-20T04:24:01.035Z,-0.98
2022-11-20T04:26:30.973Z,-0.98
2022-11-20T04:28:59.019Z,-0.98
2022-11-20T04:31:31.672Z,-0.97
2022-11-20T04:34:06.882Z,-0.97
2022-11-20T04:36:35.157Z,-0.98
2022-11-20T04:39:05.574Z,-0.93
2022-11-20T04:41:36.128Z,-0.96
2022-11-20T04:44:05.004Z,-0.98
2022-11-20T04:46:41.747Z,-0.98
2022-11-20T04:49:09.806Z,-0.98
2022-11-20T04:51:36.962Z,-0.96
2022-11-20T04:54:04.354Z,-0.96
2022-11-20T04:56:31.568Z,-1.02
2022-11-20T04:59:02.213Z,-0.99
2022-11-20T05:01:29.509Z,-0.97
2022-11-20T05:03:56.689Z,-0.94
2022-11-20T05:06:23.962Z,-0.97
2022-11-20T05:08:51.401Z,-0.98
2022-11-20T05:11:21.235Z,-0.97
2022-11-20T05:13:49.237Z,-0.97
2022-11-20T05:16:19.163Z,-1.03
2022-11-20T05:18:46.533Z,-1.02
2022-11-20T05:21:14.488Z,-0.99
2022-11-20T05:23:42.319Z,-0.98
2022-11-20T05:26:17.281Z,-1.00
2022-11-20T05:28:44.389Z,-1.03
2022-11-20T05:31:14.402Z,-1.06
2022-11-20T05:33:43.370Z,-1.04
2022-11-20T05:36:11.011Z,-1.00
2022-11-20T05:38:38.479Z,-1.03
2022-11-20T05:41:31.650Z,-0.99
2022-11-20T05:44:00.147Z,-1.00
2022-11-20T05:46:28.982Z,-1.03
2022-11-20T05:48:58.284Z,-1.02
2022-11-20T05:51:26.355Z,-1.01
2022-11-20T05:53:53.479Z,-1.00
2022-11-20T05:56:22.681Z,-1.03
2022-11-20T05:58:50.812Z,-1.04
2022-11-20T06:01:21.240Z,-1.03
2022-11-20T06:03:48.984Z,-1.03
2022-11-20T06:06:17.882Z,-1.02
2022-11-20T06:08:45.999Z,-1.03
2022-11-20T06:11:14.751Z,-1.09
2022-11-20T06:13:43.198Z,-1.06
2022-11-20T06:16:11.558Z,-1.07
2022-11-20T06:18:39.262Z,-1.07
2022-11-20T06:21:09.002Z,-1.05
2022-11-20T06:23:37.041Z,-1.04
2022-11-20T06:26:12.344Z,-1.05
2022-11-20T06:28:39.572Z,-1.09
2022-11-20T06:31:07.721Z,-1.03
2022-11-20T06:33:34.921Z,-1.04
2022-11-20T06:36:07.430Z,-1.02
2022-11-20T06:38:38.075Z,-1.00
2022-11-20T06:41:06.789Z,-0.99
2022-11-20T06:43:34.002Z,-0.99
2022-11-20T06:46:01.048Z,-1.06
2022-11-20T06:48:29.588Z,-0.99
2022-11-20T06:50:57.552Z,-0.96
2022-11-20T06:53:25.510Z,-0.95
2022-11-20T06:55:53.763Z,-0.93
2022-11-20T06:58:20.878Z,-1.01
2022-11-20T07:00:48.098Z,-0.91
2022-11-20T07:03:15.361Z,-0.90
2022-11-20T07:05:42.558Z,-0.87
2022-11-20T07:08:10.844Z,-0.91
2022-11-20T07:10:38.002Z,-0.87
2022-11-20T07:13:05.150Z,-0.90
2022-11-20T07:15:32.178Z,-0.87
2022-11-20T07:18:02.794Z,-0.87
2022-11-20T07:20:30.088Z,-0.88
2022-11-20T07:22:58.358Z,-0.83
2022-11-20T07:25:27.049Z,-0.77
2022-11-20T07:27:54.291Z,-0.72
2022-11-20T07:30:21.985Z,-0.63
2022-11-20T07:32:54.596Z,-0.55
2022-11-20T07:35:22.171Z,-0.50
2022-11-20T07:37:49.801Z,-0.46
2022-11-20T07:40:18.078Z,-0.43
2022-11-20T07:42:56.429Z,-0.45
2022-11-20T07:45:25.761Z,-0.48
2022-11-20T07:47:52.884Z,-0.50
2022-11-20T07:50:21.040Z,-0.50
2022-11-20T07:52:48.778Z,-0.50
2022-11-20T07:55:16.461Z,-0.45
2022-11-20T07:57:43.802Z,-0.43
2022-11-20T08:00:12.575Z,-0.45
2022-11-20T08:02:41.420Z,-0.38
2022-11-20T08:05:12.434Z,-0.36
2022-11-20T08:07:45.372Z,-0.37
2022-11-20T08:10:16.548Z,-0.27
2022-11-20T08:13:10.003Z,-0.27
2022-11-20T08:15:38.604Z,-0.24
2022-11-20T08:21:03.243Z,-0.22
2022-11-20T08:23:30.524Z,-0.16
2022-11-20T08:25:57.629Z,-0.09
2022-11-20T08:28:24.760Z,-0.07
2022-11-20T08:30:52.012Z,-0.05
2022-11-20T08:33:19.615Z,-0.09
2022-11-20T08:35:47.134Z,-0.03
2022-11-20T08:38:14.403Z,-0.09
2022-11-20T08:40:41.569Z,-0.08
2022-11-20T08:43:08.783Z,-0.07
2022-11-20T08:45:36.003Z,-0.05
2022-11-20T08:48:04.635Z,-0.02
2022-11-20T08:50:33.631Z,0.01
2022-11-20T08:53:05.973Z,-0.05
2022-11-20T08:55:33.431Z,-0.07
2022-11-20T08:58:05.049Z,-0.13
2022-11-20T09:00:33.618Z,-0.07
2022-11-20T09:03:02.410Z,0.02
2022-11-20T09:05:29.921Z,0.05
2022-11-20T09:07:58.592Z,0.05
2022-11-20T09:10:26.341Z,0.17
2022-11-20T09:12:54.920Z,0.14
2022-11-20T09:15:22.763Z,0.16
2022-11-20T09:17:57.536Z,0.12
2022-11-20T09:20:25.165Z,0.05
2022-11-20T09:22:52.613Z,0.12
2022-11-20T09:25:20.059Z,0.02
2022-11-20T09:27:47.452Z,0.10
2022-11-20T09:30:16.482Z,0.09
2022-11-20T09:32:44.357Z,0.07
2022-11-20T09:35:11.979Z,0.06
2022-11-20T09:37:39.605Z,0.15
2022-11-20T09:40:07.885Z,0.24
2022-11-20T09:43:20.244Z,0.31
2022-11-20T09:46:10.186Z,0.43
2022-11-20T09:49:19.584Z,0.51
2022-11-20T09:52:00.279Z,0.54
2022-11-20T09:54:40.846Z,0.42
2022-11-20T09:57:20.105Z,0.43
2022-11-20T09:59:52.422Z,0.44
2022-11-20T10:02:25.682Z,0.49
2022-11-20T10:05:24.404Z,0.52
2022-11-20T10:08:03.542Z,0.52
2022-11-20T10:10:41.118Z,0.51
2022-11-20T10:13:16.662Z,0.62
2022-11-20T10:16:05.040Z,0.67
2022-11-20T10:19:07.283Z,0.77
2022-11-20T10:21:57.325Z,0.86
2022-11-20T10:24:44.698Z,0.89
2022-11-20T10:27:30.183Z,0.91
2022-11-20T10:30:15.964Z,0.96
2022-11-20T10:33:04.904Z,0.91
2022-11-20T10:36:04.501Z,1.01
2022-11-20T10:38:55.900Z,1.07
2022-11-20T10:41:33.133Z,1.07
2022-11-20T10:44:40.422Z,1.18
2022-11-20T10:47:18.297Z,1.29
2022-11-20T10:49:52.482Z,1.30
2022-11-20T10:52:38.093Z,1.40
2022-11-20T10:55:19.922Z,1.38
2022-11-20T10:58:09.091Z,1.31
2022-11-20T11:00:36.541Z,1.27
2022-11-20T11:03:04.498Z,1.27
2022-11-20T11:05:43.817Z,1.31
2022-11-20T11:08:20.454Z,1.23
2022-11-20T11:10:58.755Z,1.20
2022-11-20T11:13:28.905Z,1.17
2022-11-20T11:15:56.199Z,1.17
2022-11-20T11:18:34.153Z,1.14
2022-11-20T11:21:04.343Z,1.17
2022-11-20T11:23:39.347Z,1.13
2022-11-20T11:26:19.181Z,1.16
2022-11-20T11:29:00.759Z,1.06
2022-11-20T11:31:30.709Z,1.07
2022-11-20T11:34:09.339Z,1.02
2022-11-20T11:36:37.085Z,1.00
2022-11-20T11:39:07.013Z,1.04
2022-11-20T11:41:38.690Z,1.10
2022-11-20T11:44:59.712Z,1.18
2022-11-20T11:47:32.323Z,1.19
2022-11-20T11:50:24.423Z,1.24
2022-11-20T11:53:20.617Z,1.28
2022-11-20T11:56:15.009Z,1.25
2022-11-20T11:58:49.655Z,1.25
2022-11-20T12:01:34.055Z,1.13
2022-11-20T12:04:07.119Z,1.11
2022-11-20T12:06:39.574Z,1.02
2022-11-20T12:09:11.241Z,0.98
2022-11-20T12:11:54.969Z,1.01
2022-11-20T12:14:38.144Z,1.04
2022-11-20T12:17:05.529Z,0.99
2022-11-20T12:19:35.384Z,1.02
2022-11-20T12:22:35.777Z,1.02
2022-11-20T12:25:13.131Z,1.05
2022-11-20T12:27:57.462Z,1.11
2022-11-20T12:30:25.932Z,1.10
2022-11-20T12:33:19.250Z,1.08
2022-11-20T12:36:07.729Z,1.02
2022-11-20T12:38:37.621Z,1.04
2022-11-20T12:41:47.521Z,1.04
2022-11-20T12:45:11.681Z,1.04
2022-11-20T12:48:09.771Z,1.08
2022-11-20T12:51:17.903Z,1.11
2022-11-20T12:54:05.520Z,1.07
2022-11-20T12:56:51.324Z,0.99
2022-11-20T12:59:29.914Z,0.96
2022-11-20T13:02:18.282Z,0.92
2022-11-20T13:05:03.387Z,0.94
2022-11-20T13:07:31.839Z,0.95
2022-11-20T13:10:00.400Z,0.85
2022-11-20T13:12:49.572Z,0.86
2022-11-20T13:15:35.920Z,0.84
2022-11-20T13:18:05.443Z,0.83
2022-11-20T13:20:35.611Z,0.76
2022-11-20T13:23:02.565Z,0.66
2022-11-20T13:25:49.143Z,0.65
2022-11-20T13:28:16.262Z,0.64
2022-11-20T13:30:55.218Z,0.61
2022-11-20T13:33:25.526Z,0.61
2022-11-20T13:35:59.599Z,0.59
2022-11-20T13:38:31.259Z,0.57
2022-11-20T13:41:22.208Z,0.57
2022-11-20T13:43:49.597Z,0.54
2022-11-20T13:46:17.080Z,0.49
2022-11-20T13:48:46.999Z,0.51
2022-11-20T13:51:54.374Z,0.52
2022-11-20T13:54:44.959Z,0.46
2022-11-20T13:57:45.733Z,0.43
2022-11-20T14:00:21.288Z,0.41
2022-11-20T14:02:59.219Z,0.42
2022-11-20T14:05:26.395Z,0.42
2022-11-20T14:07:55.239Z,0.43
2022-11-20T14:10:31.082Z,0.43
2022-11-20T14:12:59.349Z,0.42
2022-11-20T14:15:31.083Z,0.38
2022-11-20T14:17:59.279Z,0.32
2022-11-20T14:20:30.178Z,0.33
2022-11-20T14:22:57.407Z,0.31
2022-11-20T14:25:32.121Z,0.32
2022-11-20T14:28:01.482Z,0.28
2022-11-20T14:30:38.699Z,0.22
2022-11-20T14:33:06.401Z,0.18
2022-11-20T14:35:41.876Z,0.11
2022-11-20T14:38:13.851Z,0.13
2022-11-20T14:40:41.160Z,0.10
2022-11-20T14:43:26.702Z,0.12
2022-11-20T14:45:59.314Z,0.09
2022-11-20T14:48:38.413Z,0.11
2022-11-20T14:51:05.589Z,0.09
2022-11-20T14:53:32.709Z,0.06
2022-11-20T14:56:01.979Z,0.08
2022-11-20T14:58:34.631Z,0.07
2022-11-20T15:01:08.984Z,0.04
2022-11-20T15:03:41.602Z,0.03
2022-11-20T15:06:13.002Z,0.03
2022-11-20T15:08:40.212Z,0.03
2022-11-20T15:11:20.981Z,-0.04
2022-11-20T15:13:48.085Z,-0.01
2022-11-20T15:16:20.816Z,-0.04
2022-11-20T15:18:48.579Z,-0.02
2022-11-20T15:21:17.970Z,0.01
2022-11-20T15:23:45.494Z,-0.03
2022-11-20T15:26:19.802Z,-0.02
2022-11-20T15:28:51.287Z,-0.06
2022-11-20T15:31:24.120Z,-0.07
2022-11-20T15:33:51.487Z,-0.11
2022-11-20T15:36:18.850Z,-0.03
2022-11-20T15:38:46.080Z,-0.04
2022-11-20T15:41:13.503Z,-0.06
2022-11-20T15:43:40.631Z,-0.06
2022-11-20T15:46:14.499Z,-0.08
2022-11-20T15:48:48.209Z,-0.06
2022-11-20T15:51:28.224Z,-0.04
2022-11-20T15:53:56.929Z,-0.04
2022-11-20T15:56:24.129Z,-0.07
2022-11-20T15:58:51.822Z,-0.08
2022-11-20T16:01:21.922Z,-0.07
2022-11-20T16:03:49.649Z,-0.11
2022-11-20T16:06:20.044Z,-0.08
2022-11-20T16:08:47.310Z,-0.14
2022-11-20T16:11:16.135Z,-0.06
2022-11-20T16:14:03.214Z,-0.14
2022-11-20T16:16:39.649Z,-0.15
2022-11-20T16:19:07.047Z,-0.15
2022-11-20T16:21:35.533Z,-0.14
2022-11-20T16:24:05.701Z,-0.14
2022-11-20T16:26:34.503Z,-0.14
2022-11-20T16:29:03.822Z,-0.16
2022-11-20T16:31:31.371Z,-0.20
2022-11-20T16:34:01.441Z,-0.14
2022-11-20T16:36:31.129Z,-0.19
2022-11-20T16:39:01.367Z,-0.18
2022-11-20T16:41:31.474Z,-0.21
2022-11-20T16:43:59.803Z,-0.20
2022-11-20T16:46:29.914Z,-0.21
2022-11-20T16:49:11.538Z,-0.28
2022-11-20T16:51:38.841Z,-0.22
2022-11-20T16:54:07.334Z,-0.22
2022-11-20T16:56:34.442Z,-0.25
2022-11-20T16:59:02.880Z,-0.25
2022-11-20T17:01:31.582Z,-0.27
2022-11-20T17:04:04.813Z,-0.27
2022-11-20T17:06:37.733Z,-0.29
2022-11-20T17:09:05.520Z,-0.31
2022-11-20T17:11:33.763Z,-0.28
2022-11-20T17:14:01.381Z,-0.31
2022-11-20T17:16:28.559Z,-0.27
2022-11-20T17:19:02.498Z,-0.31
2022-11-20T17:21:31.579Z,-0.29
2022-11-20T17:24:06.205Z,-0.30
2022-11-20T17:26:35.579Z,-0.31
2022-11-20T17:29:06.291Z,-0.38
2022-11-20T17:31:35.190Z,-0.38
2022-11-20T17:34:02.839Z,-0.34
2022-11-20T17:36:31.039Z,-0.32
2022-11-20T17:38:59.242Z,-0.33
2022-11-20T17:41:29.484Z,-0.31
2022-11-20T17:44:01.098Z,-0.30
2022-11-20T17:46:32.964Z,-0.29
2022-11-20T17:49:01.040Z,-0.28
2022-11-20T17:51:30.963Z,-0.27
2022-11-20T17:54:03.896Z,-0.32
2022-11-20T17:56:53.401Z,-0.29
2022-11-20T17:59:21.240Z,-0.34
2022-11-20T18:01:48.588Z,-0.36
2022-11-20T18:04:16.918Z,-0.40
2022-11-20T18:06:44.586Z,-0.40
2022-11-20T18:09:12.460Z,-0.43
2022-11-20T18:11:41.528Z,-0.45
2022-11-20T18:14:49.265Z,-0.49
2022-11-20T18:17:16.805Z,-0.49
2022-11-20T18:20:01.176Z,-0.49
2022-11-20T18:22:33.450Z,-0.49
2022-11-20T18:25:00.769Z,-0.49
2022-11-20T18:27:27.883Z,-0.50
2022-11-20T18:29:55.052Z,-0.51
2022-11-20T18:32:23.006Z,-0.48
2022-11-20T18:34:51.589Z,-0.47
2022-11-20T18:37:19.107Z,-0.46
2022-11-20T18:39:46.662Z,-0.43
2022-11-20T18:42:34.966Z,-0.46
2022-11-20T18:45:04.631Z,-0.43
2022-11-20T18:47:36.425Z,-0.43
2022-11-20T18:50:05.303Z,-0.40
2022-11-20T18:52:48.043Z,-0.46
2022-11-20T18:55:15.316Z,-0.38
2022-11-20T18:57:42.613Z,-0.35
2022-11-20T19:00:10.620Z,-0.33
2022-11-20T19:02:42.064Z,-0.31
2022-11-20T19:05:11.933Z,-0.29
2022-11-20T19:07:39.278Z,-0.31
2022-11-20T19:10:07.337Z,-0.32
2022-11-20T19:12:34.454Z,-0.32
2022-11-20T19:15:01.609Z,-0.28
2022-11-20T19:17:28.832Z,-0.30
2022-11-20T19:19:56.103Z,-0.30
2022-11-20T19:22:23.980Z,-0.28
2022-11-20T19:24:51.089Z,-0.29
2022-11-20T19:27:18.282Z,-0.29
2022-11-20T19:29:45.450Z,-0.29
2022-11-20T19:32:12.645Z,-0.30
2022-11-20T19:34:39.968Z,-0.29
2022-11-20T19:37:07.256Z,-0.26
2022-11-20T19:39:36.394Z,-0.30
2022-11-20T19:42:03.907Z,-0.24
2022-11-20T19:44:32.471Z,-0.33
2022-11-20T19:46:59.819Z,-0.20
2022-11-20T19:49:27.061Z,-0.20
2022-11-20T19:51:54.295Z,-0.18
2022-11-20T19:54:21.480Z,-0.18
2022-11-20T19:56:49.813Z,-0.20
2022-11-20T19:59:17.014Z,-0.21
2022-11-20T20:01:44.524Z,-0.22
2022-11-20T20:04:11.750Z,-0.17
2022-11-20T20:06:40.204Z,-0.16
2022-11-20T20:09:10.403Z,-0.17
2022-11-20T20:11:37.962Z,-0.22
2022-11-20T20:14:07.883Z,-0.25
2022-11-20T20:16:35.928Z,-0.31
2022-11-20T20:19:05.728Z,-0.28
2022-11-20T20:21:35.272Z,-0.30
2022-11-20T20:24:02.813Z,-0.33
2022-11-20T20:26:31.597Z,-0.34
2022-11-20T20:28:59.438Z,-0.36
2022-11-20T20:31:29.289Z,-0.34
2022-11-20T20:33:57.440Z,-0.35
2022-11-20T20:36:25.653Z,-0.36
2022-11-20T20:38:54.146Z,-0.46
2022-11-20T20:41:23.452Z,-0.39
2022-11-20T20:44:09.882Z,-0.42
2022-11-20T20:46:36.960Z,-0.40
2022-11-20T20:49:04.357Z,-0.42
2022-11-20T20:51:31.450Z,-0.37
2022-11-20T20:53:58.769Z,-0.46
2022-11-20T20:56:26.262Z,-0.44
2022-11-20T20:58:53.430Z,-0.45
2022-11-20T21:01:21.579Z,-0.52
2022-11-20T21:03:48.949Z,-0.59
2022-11-20T21:06:16.105Z,-0.58
2022-11-20T21:08:44.574Z,-0.63
2022-11-20T21:11:14.769Z,-0.68
2022-11-20T21:13:43.560Z,-0.64
2022-11-20T21:16:12.290Z,-0.65
2022-11-20T21:18:39.494Z,-0.67
2022-11-20T21:21:26.532Z,-0.73
2022-11-20T21:23:53.918Z,-0.75
2022-11-20T21:26:21.698Z,-0.77
2022-11-20T21:28:50.128Z,-0.93
2022-11-20T21:31:22.249Z,-0.83
2022-11-20T21:33:51.864Z,-0.92
2022-11-20T21:36:21.721Z,-0.91
2022-11-20T21:38:49.334Z,-0.94
2022-11-20T21:41:16.581Z,-0.94
2022-11-20T21:43:44.415Z,-0.97
2022-11-20T21:46:16.883Z,-0.97
2022-11-20T21:48:45.968Z,-0.98
2022-11-20T21:51:18.685Z,-0.98
2022-11-20T21:53:47.519Z,-0.99
2022-11-20T21:56:20.290Z,-1.03
2022-11-20T21:58:48.971Z,-1.06
2022-11-20T22:01:17.659Z,-1.10
2022-11-20T22:03:57.363Z,-1.15
2022-11-20T22:06:27.274Z,-1.16
2022-11-20T22:08:54.490Z,-1.18
2022-11-20T22:11:22.461Z,-1.19
2022-11-20T22:14:08.540Z,-1.24
2022-11-20T22:16:37.351Z,-1.28
2022-11-20T22:19:05.170Z,-1.30
2022-11-20T22:21:33.251Z,-1.28
2022-11-20T22:24:00.676Z,-1.30
2022-11-20T22:26:30.287Z,-1.32
2022-11-20T22:28:58.952Z,-1.34
2022-11-20T22:31:28.392Z,-1.44
2022-11-20T22:33:56.123Z,-1.38
2022-11-20T22:36:25.742Z,-1.42
2022-11-20T22:38:53.042Z,-1.50
2022-11-20T22:41:22.121Z,-1.43
2022-11-20T22:43:55.025Z,-1.42
2022-11-20T22:46:22.619Z,-1.42
2022-11-20T22:48:52.304Z,-1.47
2022-11-20T22:51:40.648Z,-1.46
2022-11-20T22:54:10.718Z,-1.46
2022-11-20T22:56:37.902Z,-1.48
2022-11-20T22:59:05.395Z,-1.53
2022-11-20T23:01:34.696Z,-1.49
2022-11-20T23:04:04.334Z,-1.53
2022-11-20T23:06:37.022Z,-1.53
2022-11-20T23:09:06.246Z,-1.53
2022-11-20T23:11:35.346Z,-1.55
2022-11-20T23:14:13.044Z,-1.57
2022-11-20T23:16:40.400Z,-1.58
2022-11-20T23:19:10.802Z,-1.60
2022-11-20T23:21:39.961Z,-1.61
2022-11-20T23:24:08.113Z,-1.62
2022-11-20T23:26:37.793Z,-1.65
2022-11-20T23:29:06.048Z,-1.66
2022-11-20T23:31:35.082Z,-1.67
2022-11-20T23:34:02.483Z,-1.67
2022-11-20T23:36:29.772Z,-1.70
2022-11-20T23:38:57.117Z,-1.76
2022-11-20T23:41:24.366Z,-1.74
2022-11-20T23:43:52.290Z,-1.72
2022-11-20T23:46:19.480Z,-1.76
2022-11-20T23:48:46.629Z,-1.70
2022-11-20T23:51:14.664Z,-1.77
2022-11-20T23:53:42.001Z,-1.75
2022-11-20T23:56:10.753Z,-1.80
2022-11-20T23:58:38.937Z,-1.81
